sensor_id;sensor_type;location;lat;lon;timestamp;P1;durP1;ratioP1;P2;durP2;ratioP2
65275;SDS011;51875;49.994;14.052;2023-03-02T00:01:08;48.65;;;18.15;;
65275;SDS011;51875;49.994;14.052;2023-03-02T00:02:25;42.75;;;17.70;;
65275;SDS011;51875;49.994;14.052;2023-03-02T00:03:41;45.28;;;16.95;;
65275;SDS011;51875;49.994;14.052;2023-03-02T00:04:57;48.47;;;18.13;;
65275;SDS011;51875;49.994;14.052;2023-03-02T00:06:13;39.72;;;16.23;;
65275;SDS011;51875;49.994;14.052;2023-03-02T00:07:30;48.13;;;18.27;;
65275;SDS011;51875;49.994;14.052;2023-03-02T00:08:48;47.30;;;18.92;;
65275;SDS011;51875;49.994;14.052;2023-03-02T00:10:04;50.85;;;18.95;;
65275;SDS011;51875;49.994;14.052;2023-03-02T00:11:20;43.35;;;18.25;;
65275;SDS011;51875;49.994;14.052;2023-03-02T00:12:36;45.28;;;18.17;;
65275;SDS011;51875;49.994;14.052;2023-03-02T00:13:52;45.05;;;18.67;;
65275;SDS011;51875;49.994;14.052;2023-03-02T00:15:07;45.03;;;18.23;;
65275;SDS011;51875;49.994;14.052;2023-03-02T00:16:24;54.30;;;20.10;;
65275;SDS011;51875;49.994;14.052;2023-03-02T00:17:39;53.33;;;20.98;;
65275;SDS011;51875;49.994;14.052;2023-03-02T00:18:55;57.40;;;20.63;;
65275;SDS011;51875;49.994;14.052;2023-03-02T00:20:10;52.72;;;20.75;;
65275;SDS011;51875;49.994;14.052;2023-03-02T00:21:27;54.55;;;20.55;;
65275;SDS011;51875;49.994;14.052;2023-03-02T00:22:43;50.20;;;19.27;;
65275;SDS011;51875;49.994;14.052;2023-03-02T00:24:00;54.47;;;20.23;;
65275;SDS011;51875;49.994;14.052;2023-03-02T00:25:16;54.72;;;20.77;;
65275;SDS011;51875;49.994;14.052;2023-03-02T00:26:32;51.15;;;20.33;;
65275;SDS011;51875;49.994;14.052;2023-03-02T00:27:49;55.85;;;21.67;;
65275;SDS011;51875;49.994;14.052;2023-03-02T00:29:04;50.08;;;20.63;;
65275;SDS011;51875;49.994;14.052;2023-03-02T00:30:20;54.13;;;20.92;;
65275;SDS011;51875;49.994;14.052;2023-03-02T00:31:36;49.13;;;20.63;;
65275;SDS011;51875;49.994;14.052;2023-03-02T00:33:01;45.60;;;19.00;;
65275;SDS011;51875;49.994;14.052;2023-03-02T00:34:16;46.13;;;17.77;;
65275;SDS011;51875;49.994;14.052;2023-03-02T00:35:38;48.03;;;19.92;;
65275;SDS011;51875;49.994;14.052;2023-03-02T00:36:55;49.20;;;19.30;;
65275;SDS011;51875;49.994;14.052;2023-03-02T00:38:11;43.67;;;18.40;;
65275;SDS011;51875;49.994;14.052;2023-03-02T00:39:27;46.10;;;19.00;;
65275;SDS011;51875;49.994;14.052;2023-03-02T00:40:46;48.42;;;19.15;;
65275;SDS011;51875;49.994;14.052;2023-03-02T00:42:03;51.65;;;18.17;;
65275;SDS011;51875;49.994;14.052;2023-03-02T00:43:18;50.55;;;18.63;;
65275;SDS011;51875;49.994;14.052;2023-03-02T00:44:37;49.67;;;19.23;;
65275;SDS011;51875;49.994;14.052;2023-03-02T00:45:55;46.15;;;19.38;;
65275;SDS011;51875;49.994;14.052;2023-03-02T00:47:11;44.13;;;17.45;;
65275;SDS011;51875;49.994;14.052;2023-03-02T00:48:27;50.72;;;19.60;;
65275;SDS011;51875;49.994;14.052;2023-03-02T00:49:42;51.75;;;19.13;;
65275;SDS011;51875;49.994;14.052;2023-03-02T00:51:03;48.78;;;19.55;;
65275;SDS011;51875;49.994;14.052;2023-03-02T00:52:19;47.33;;;18.98;;
65275;SDS011;51875;49.994;14.052;2023-03-02T00:53:35;54.05;;;20.67;;
65275;SDS011;51875;49.994;14.052;2023-03-02T00:54:51;47.90;;;18.85;;
65275;SDS011;51875;49.994;14.052;2023-03-02T00:56:07;43.38;;;18.73;;
65275;SDS011;51875;49.994;14.052;2023-03-02T00:57:23;44.33;;;17.73;;
65275;SDS011;51875;49.994;14.052;2023-03-02T00:58:39;45.00;;;18.90;;
65275;SDS011;51875;49.994;14.052;2023-03-02T00:59:55;41.47;;;17.98;;
65275;SDS011;51875;49.994;14.052;2023-03-02T01:01:11;47.53;;;18.95;;
65275;SDS011;51875;49.994;14.052;2023-03-02T01:02:27;46.97;;;18.92;;
65275;SDS011;51875;49.994;14.052;2023-03-02T01:03:43;48.92;;;19.10;;
65275;SDS011;51875;49.994;14.052;2023-03-02T01:04:59;47.50;;;19.25;;
65275;SDS011;51875;49.994;14.052;2023-03-02T01:06:16;43.83;;;18.70;;
65275;SDS011;51875;49.994;14.052;2023-03-02T01:07:33;41.88;;;16.90;;
65275;SDS011;51875;49.994;14.052;2023-03-02T01:08:49;48.25;;;21.02;;
65275;SDS011;51875;49.994;14.052;2023-03-02T01:10:04;47.03;;;19.10;;
65275;SDS011;51875;49.994;14.052;2023-03-02T01:11:21;45.85;;;18.13;;
65275;SDS011;51875;49.994;14.052;2023-03-02T01:12:37;45.25;;;18.88;;
65275;SDS011;51875;49.994;14.052;2023-03-02T01:13:52;48.05;;;19.17;;
65275;SDS011;51875;49.994;14.052;2023-03-02T01:15:08;46.22;;;18.67;;
65275;SDS011;51875;49.994;14.052;2023-03-02T01:16:25;42.08;;;18.17;;
65275;SDS011;51875;49.994;14.052;2023-03-02T01:17:40;47.22;;;19.65;;
65275;SDS011;51875;49.994;14.052;2023-03-02T01:18:58;49.85;;;18.77;;
65275;SDS011;51875;49.994;14.052;2023-03-02T01:20:14;50.67;;;19.77;;
65275;SDS011;51875;49.994;14.052;2023-03-02T01:21:30;57.42;;;20.80;;
65275;SDS011;51875;49.994;14.052;2023-03-02T01:22:46;48.17;;;19.17;;
65275;SDS011;51875;49.994;14.052;2023-03-02T01:24:02;47.22;;;19.00;;
65275;SDS011;51875;49.994;14.052;2023-03-02T01:25:18;46.10;;;18.20;;
65275;SDS011;51875;49.994;14.052;2023-03-02T01:26:33;46.80;;;19.25;;
65275;SDS011;51875;49.994;14.052;2023-03-02T01:27:49;45.67;;;18.90;;
65275;SDS011;51875;49.994;14.052;2023-03-02T01:29:05;42.35;;;18.30;;
65275;SDS011;51875;49.994;14.052;2023-03-02T01:30:21;47.35;;;18.73;;
65275;SDS011;51875;49.994;14.052;2023-03-02T01:31:36;49.40;;;19.10;;
65275;SDS011;51875;49.994;14.052;2023-03-02T01:32:52;47.05;;;18.48;;
65275;SDS011;51875;49.994;14.052;2023-03-02T01:34:08;45.28;;;19.05;;
65275;SDS011;51875;49.994;14.052;2023-03-02T01:35:24;44.65;;;17.00;;
65275;SDS011;51875;49.994;14.052;2023-03-02T01:36:40;43.40;;;18.50;;
65275;SDS011;51875;49.994;14.052;2023-03-02T01:37:58;47.53;;;18.90;;
65275;SDS011;51875;49.994;14.052;2023-03-02T01:39:14;47.03;;;18.83;;
65275;SDS011;51875;49.994;14.052;2023-03-02T01:40:30;40.55;;;17.38;;
65275;SDS011;51875;49.994;14.052;2023-03-02T01:41:45;41.58;;;18.10;;
65275;SDS011;51875;49.994;14.052;2023-03-02T01:43:01;45.42;;;18.00;;
65275;SDS011;51875;49.994;14.052;2023-03-02T01:45:56;43.53;;;17.92;;
65275;SDS011;51875;49.994;14.052;2023-03-02T01:47:17;43.72;;;19.10;;
65275;SDS011;51875;49.994;14.052;2023-03-02T01:51:34;45.00;;;17.95;;
65275;SDS011;51875;49.994;14.052;2023-03-02T01:52:58;45.42;;;19.27;;
65275;SDS011;51875;49.994;14.052;2023-03-02T01:54:14;45.92;;;18.10;;
65275;SDS011;51875;49.994;14.052;2023-03-02T01:55:37;48.40;;;18.30;;
65275;SDS011;51875;49.994;14.052;2023-03-02T01:56:55;50.20;;;18.48;;
65275;SDS011;51875;49.994;14.052;2023-03-02T01:58:13;43.95;;;17.73;;
65275;SDS011;51875;49.994;14.052;2023-03-02T01:59:30;50.85;;;18.02;;
65275;SDS011;51875;49.994;14.052;2023-03-02T02:00:51;48.75;;;19.17;;
65275;SDS011;51875;49.994;14.052;2023-03-02T02:02:09;52.97;;;19.83;;
65275;SDS011;51875;49.994;14.052;2023-03-02T02:03:26;44.38;;;19.05;;
65275;SDS011;51875;49.994;14.052;2023-03-02T02:04:45;44.70;;;19.42;;
65275;SDS011;51875;49.994;14.052;2023-03-02T02:06:05;44.20;;;18.80;;
65275;SDS011;51875;49.994;14.052;2023-03-02T02:07:27;46.88;;;17.58;;
65275;SDS011;51875;49.994;14.052;2023-03-02T02:08:43;45.45;;;17.48;;
65275;SDS011;51875;49.994;14.052;2023-03-02T02:10:00;49.42;;;18.88;;
65275;SDS011;51875;49.994;14.052;2023-03-02T02:11:16;44.42;;;17.33;;
65275;SDS011;51875;49.994;14.052;2023-03-02T02:12:33;46.22;;;18.88;;
65275;SDS011;51875;49.994;14.052;2023-03-02T02:13:49;46.03;;;18.55;;
65275;SDS011;51875;49.994;14.052;2023-03-02T02:15:09;46.80;;;18.33;;
65275;SDS011;51875;49.994;14.052;2023-03-02T02:16:25;47.78;;;18.83;;
65275;SDS011;51875;49.994;14.052;2023-03-02T02:17:42;43.53;;;18.35;;
65275;SDS011;51875;49.994;14.052;2023-03-02T02:18:58;53.97;;;19.90;;
65275;SDS011;51875;49.994;14.052;2023-03-02T02:20:19;50.75;;;18.95;;
65275;SDS011;51875;49.994;14.052;2023-03-02T02:21:42;48.05;;;17.38;;
65275;SDS011;51875;49.994;14.052;2023-03-02T02:24:41;43.95;;;17.77;;
65275;SDS011;51875;49.994;14.052;2023-03-02T02:26:02;50.97;;;19.58;;
65275;SDS011;51875;49.994;14.052;2023-03-02T02:27:22;44.47;;;17.65;;
65275;SDS011;51875;49.994;14.052;2023-03-02T02:28:55;43.90;;;17.05;;
65275;SDS011;51875;49.994;14.052;2023-03-02T02:30:14;44.50;;;17.88;;
65275;SDS011;51875;49.994;14.052;2023-03-02T02:31:42;46.83;;;17.80;;
65275;SDS011;51875;49.994;14.052;2023-03-02T02:33:02;52.13;;;19.98;;
65275;SDS011;51875;49.994;14.052;2023-03-02T02:34:23;44.17;;;18.15;;
65275;SDS011;51875;49.994;14.052;2023-03-02T02:35:45;42.08;;;17.63;;
65275;SDS011;51875;49.994;14.052;2023-03-02T02:37:45;45.45;;;18.33;;
65275;SDS011;51875;49.994;14.052;2023-03-02T02:38:53;37.88;;;16.15;;
65275;SDS011;51875;49.994;14.052;2023-03-02T02:40:15;41.80;;;17.58;;
65275;SDS011;51875;49.994;14.052;2023-03-02T02:41:35;46.13;;;18.23;;
65275;SDS011;51875;49.994;14.052;2023-03-02T02:42:53;41.60;;;18.00;;
65275;SDS011;51875;49.994;14.052;2023-03-02T02:44:11;45.75;;;17.85;;
65275;SDS011;51875;49.994;14.052;2023-03-02T02:45:28;48.72;;;17.35;;
65275;SDS011;51875;49.994;14.052;2023-03-02T02:46:45;46.92;;;17.67;;
65275;SDS011;51875;49.994;14.052;2023-03-02T02:48:01;45.65;;;17.10;;
65275;SDS011;51875;49.994;14.052;2023-03-02T02:50:40;42.08;;;17.05;;
65275;SDS011;51875;49.994;14.052;2023-03-02T02:51:57;50.92;;;18.50;;
65275;SDS011;51875;49.994;14.052;2023-03-02T02:53:20;37.22;;;15.27;;
65275;SDS011;51875;49.994;14.052;2023-03-02T02:54:45;47.85;;;17.67;;
65275;SDS011;51875;49.994;14.052;2023-03-02T02:56:02;48.65;;;18.00;;
65275;SDS011;51875;49.994;14.052;2023-03-02T02:57:20;49.92;;;18.73;;
65275;SDS011;51875;49.994;14.052;2023-03-02T02:58:43;47.20;;;16.95;;
65275;SDS011;51875;49.994;14.052;2023-03-02T03:00:03;50.00;;;17.00;;
65275;SDS011;51875;49.994;14.052;2023-03-02T03:01:21;38.05;;;15.73;;
65275;SDS011;51875;49.994;14.052;2023-03-02T03:02:42;44.08;;;17.20;;
65275;SDS011;51875;49.994;14.052;2023-03-02T03:04:00;50.95;;;19.70;;
65275;SDS011;51875;49.994;14.052;2023-03-02T03:05:18;49.28;;;18.55;;
65275;SDS011;51875;49.994;14.052;2023-03-02T03:06:34;47.35;;;19.25;;
65275;SDS011;51875;49.994;14.052;2023-03-02T03:08:06;44.60;;;18.25;;
65275;SDS011;51875;49.994;14.052;2023-03-02T03:09:44;46.95;;;16.80;;
65275;SDS011;51875;49.994;14.052;2023-03-02T03:11:03;41.83;;;16.23;;
65275;SDS011;51875;49.994;14.052;2023-03-02T03:12:20;44.13;;;18.85;;
65275;SDS011;51875;49.994;14.052;2023-03-02T03:13:38;41.85;;;17.13;;
65275;SDS011;51875;49.994;14.052;2023-03-02T03:14:56;43.28;;;16.35;;
65275;SDS011;51875;49.994;14.052;2023-03-02T03:16:14;49.75;;;18.02;;
65275;SDS011;51875;49.994;14.052;2023-03-02T03:17:30;41.00;;;16.17;;
65275;SDS011;51875;49.994;14.052;2023-03-02T03:18:46;43.53;;;17.70;;
65275;SDS011;51875;49.994;14.052;2023-03-02T03:20:03;42.75;;;18.27;;
65275;SDS011;51875;49.994;14.052;2023-03-02T03:21:23;47.10;;;17.80;;
65275;SDS011;51875;49.994;14.052;2023-03-02T03:22:39;43.38;;;17.20;;
65275;SDS011;51875;49.994;14.052;2023-03-02T03:23:54;43.65;;;17.45;;
65275;SDS011;51875;49.994;14.052;2023-03-02T03:25:10;45.58;;;18.45;;
65275;SDS011;51875;49.994;14.052;2023-03-02T03:26:29;48.13;;;18.70;;
65275;SDS011;51875;49.994;14.052;2023-03-02T03:27:45;50.38;;;18.55;;
65275;SDS011;51875;49.994;14.052;2023-03-02T03:29:01;44.75;;;18.30;;
65275;SDS011;51875;49.994;14.052;2023-03-02T03:30:17;46.67;;;18.60;;
65275;SDS011;51875;49.994;14.052;2023-03-02T03:31:33;42.63;;;16.95;;
65275;SDS011;51875;49.994;14.052;2023-03-02T03:32:49;49.30;;;19.35;;
65275;SDS011;51875;49.994;14.052;2023-03-02T03:34:05;50.92;;;19.25;;
65275;SDS011;51875;49.994;14.052;2023-03-02T03:35:21;48.97;;;19.10;;
65275;SDS011;51875;49.994;14.052;2023-03-02T03:36:37;45.40;;;19.20;;
65275;SDS011;51875;49.994;14.052;2023-03-02T03:37:53;49.95;;;19.88;;
65275;SDS011;51875;49.994;14.052;2023-03-02T03:39:09;49.97;;;18.52;;
65275;SDS011;51875;49.994;14.052;2023-03-02T03:40:25;42.95;;;17.65;;
65275;SDS011;51875;49.994;14.052;2023-03-02T03:41:41;53.60;;;18.83;;
65275;SDS011;51875;49.994;14.052;2023-03-02T03:42:57;46.47;;;18.67;;
65275;SDS011;51875;49.994;14.052;2023-03-02T03:44:12;44.38;;;17.85;;
65275;SDS011;51875;49.994;14.052;2023-03-02T03:45:28;51.30;;;18.58;;
65275;SDS011;51875;49.994;14.052;2023-03-02T03:46:45;45.47;;;18.63;;
65275;SDS011;51875;49.994;14.052;2023-03-02T03:48:00;48.00;;;19.17;;
65275;SDS011;51875;49.994;14.052;2023-03-02T03:49:16;49.90;;;18.10;;
65275;SDS011;51875;49.994;14.052;2023-03-02T03:50:31;45.15;;;18.65;;
65275;SDS011;51875;49.994;14.052;2023-03-02T03:51:47;46.08;;;17.63;;
65275;SDS011;51875;49.994;14.052;2023-03-02T03:53:03;44.38;;;17.35;;
65275;SDS011;51875;49.994;14.052;2023-03-02T03:54:18;43.25;;;18.20;;
65275;SDS011;51875;49.994;14.052;2023-03-02T03:55:34;45.17;;;18.00;;
65275;SDS011;51875;49.994;14.052;2023-03-02T03:56:50;42.85;;;17.58;;
65275;SDS011;51875;49.994;14.052;2023-03-02T03:58:05;45.47;;;17.83;;
65275;SDS011;51875;49.994;14.052;2023-03-02T03:59:21;44.67;;;17.88;;
65275;SDS011;51875;49.994;14.052;2023-03-02T04:00:38;42.40;;;17.63;;
65275;SDS011;51875;49.994;14.052;2023-03-02T04:01:56;42.85;;;17.98;;
65275;SDS011;51875;49.994;14.052;2023-03-02T04:03:13;45.22;;;17.95;;
65275;SDS011;51875;49.994;14.052;2023-03-02T04:04:31;39.47;;;17.60;;
65275;SDS011;51875;49.994;14.052;2023-03-02T04:05:48;43.10;;;17.58;;
65275;SDS011;51875;49.994;14.052;2023-03-02T04:07:04;44.67;;;17.63;;
65275;SDS011;51875;49.994;14.052;2023-03-02T04:08:20;46.78;;;17.98;;
65275;SDS011;51875;49.994;14.052;2023-03-02T04:09:35;48.70;;;18.48;;
65275;SDS011;51875;49.994;14.052;2023-03-02T04:10:52;45.88;;;17.00;;
65275;SDS011;51875;49.994;14.052;2023-03-02T04:12:08;43.30;;;18.02;;
65275;SDS011;51875;49.994;14.052;2023-03-02T04:13:24;45.00;;;18.05;;
65275;SDS011;51875;49.994;14.052;2023-03-02T04:14:40;53.65;;;19.98;;
65275;SDS011;51875;49.994;14.052;2023-03-02T04:15:55;45.78;;;17.27;;
65275;SDS011;51875;49.994;14.052;2023-03-02T04:17:11;46.55;;;17.98;;
65275;SDS011;51875;49.994;14.052;2023-03-02T04:18:27;51.03;;;19.25;;
65275;SDS011;51875;49.994;14.052;2023-03-02T04:19:42;44.00;;;17.58;;
65275;SDS011;51875;49.994;14.052;2023-03-02T04:21:00;47.88;;;19.42;;
65275;SDS011;51875;49.994;14.052;2023-03-02T04:22:15;44.10;;;17.67;;
65275;SDS011;51875;49.994;14.052;2023-03-02T04:23:31;47.25;;;17.77;;
65275;SDS011;51875;49.994;14.052;2023-03-02T04:24:47;50.80;;;18.92;;
65275;SDS011;51875;49.994;14.052;2023-03-02T04:26:03;44.72;;;18.55;;
65275;SDS011;51875;49.994;14.052;2023-03-02T04:27:19;52.08;;;19.73;;
65275;SDS011;51875;49.994;14.052;2023-03-02T04:28:35;50.97;;;19.02;;
65275;SDS011;51875;49.994;14.052;2023-03-02T04:29:50;46.97;;;17.63;;
65275;SDS011;51875;49.994;14.052;2023-03-02T04:31:07;47.70;;;19.48;;
65275;SDS011;51875;49.994;14.052;2023-03-02T04:32:23;49.40;;;20.10;;
65275;SDS011;51875;49.994;14.052;2023-03-02T04:33:38;54.75;;;21.33;;
65275;SDS011;51875;49.994;14.052;2023-03-02T04:34:54;61.22;;;21.83;;
65275;SDS011;51875;49.994;14.052;2023-03-02T04:36:09;55.78;;;19.73;;
65275;SDS011;51875;49.994;14.052;2023-03-02T04:37:25;50.97;;;18.50;;
65275;SDS011;51875;49.994;14.052;2023-03-02T04:38:41;50.17;;;19.02;;
65275;SDS011;51875;49.994;14.052;2023-03-02T04:39:57;47.47;;;19.33;;
65275;SDS011;51875;49.994;14.052;2023-03-02T04:41:12;51.97;;;19.67;;
65275;SDS011;51875;49.994;14.052;2023-03-02T04:42:28;44.42;;;18.45;;
65275;SDS011;51875;49.994;14.052;2023-03-02T04:43:44;46.10;;;19.20;;
65275;SDS011;51875;49.994;14.052;2023-03-02T04:44:59;44.95;;;18.20;;
65275;SDS011;51875;49.994;14.052;2023-03-02T04:46:17;47.00;;;19.15;;
65275;SDS011;51875;49.994;14.052;2023-03-02T04:47:36;43.92;;;17.27;;
65275;SDS011;51875;49.994;14.052;2023-03-02T04:48:51;47.70;;;18.20;;
65275;SDS011;51875;49.994;14.052;2023-03-02T04:50:08;47.92;;;18.58;;
65275;SDS011;51875;49.994;14.052;2023-03-02T04:51:27;48.58;;;19.13;;
65275;SDS011;51875;49.994;14.052;2023-03-02T04:52:45;45.90;;;17.45;;
65275;SDS011;51875;49.994;14.052;2023-03-02T04:54:03;46.00;;;18.55;;
65275;SDS011;51875;49.994;14.052;2023-03-02T04:55:22;46.47;;;18.33;;
65275;SDS011;51875;49.994;14.052;2023-03-02T04:56:38;46.65;;;18.10;;
65275;SDS011;51875;49.994;14.052;2023-03-02T04:57:54;48.47;;;18.10;;
65275;SDS011;51875;49.994;14.052;2023-03-02T04:59:10;47.25;;;18.67;;
65275;SDS011;51875;49.994;14.052;2023-03-02T05:00:25;50.13;;;19.52;;
65275;SDS011;51875;49.994;14.052;2023-03-02T05:01:43;54.58;;;21.15;;
65275;SDS011;51875;49.994;14.052;2023-03-02T05:02:59;55.60;;;20.48;;
65275;SDS011;51875;49.994;14.052;2023-03-02T05:04:16;51.80;;;20.25;;
65275;SDS011;51875;49.994;14.052;2023-03-02T05:05:33;55.78;;;19.00;;
65275;SDS011;51875;49.994;14.052;2023-03-02T05:06:48;53.67;;;20.63;;
65275;SDS011;51875;49.994;14.052;2023-03-02T05:08:04;50.05;;;19.85;;
65275;SDS011;51875;49.994;14.052;2023-03-02T05:09:20;54.90;;;19.48;;
65275;SDS011;51875;49.994;14.052;2023-03-02T05:10:41;49.03;;;19.27;;
65275;SDS011;51875;49.994;14.052;2023-03-02T05:11:58;55.33;;;21.27;;
65275;SDS011;51875;49.994;14.052;2023-03-02T05:13:15;49.35;;;18.80;;
65275;SDS011;51875;49.994;14.052;2023-03-02T05:14:30;51.70;;;19.42;;
65275;SDS011;51875;49.994;14.052;2023-03-02T05:15:46;47.55;;;19.45;;
65275;SDS011;51875;49.994;14.052;2023-03-02T05:17:02;50.45;;;20.23;;
65275;SDS011;51875;49.994;14.052;2023-03-02T05:18:18;44.97;;;18.38;;
65275;SDS011;51875;49.994;14.052;2023-03-02T05:19:34;52.95;;;19.27;;
65275;SDS011;51875;49.994;14.052;2023-03-02T05:20:50;53.35;;;20.15;;
65275;SDS011;51875;49.994;14.052;2023-03-02T05:22:07;47.58;;;19.58;;
65275;SDS011;51875;49.994;14.052;2023-03-02T05:23:23;52.40;;;21.38;;
65275;SDS011;51875;49.994;14.052;2023-03-02T05:24:39;53.47;;;19.77;;
65275;SDS011;51875;49.994;14.052;2023-03-02T05:25:54;41.30;;;18.50;;
65275;SDS011;51875;49.994;14.052;2023-03-02T05:27:10;52.90;;;20.15;;
65275;SDS011;51875;49.994;14.052;2023-03-02T05:28:26;45.53;;;18.45;;
65275;SDS011;51875;49.994;14.052;2023-03-02T05:29:42;48.33;;;19.23;;
65275;SDS011;51875;49.994;14.052;2023-03-02T05:30:58;48.60;;;18.77;;
65275;SDS011;51875;49.994;14.052;2023-03-02T05:32:14;45.78;;;19.17;;
65275;SDS011;51875;49.994;14.052;2023-03-02T05:33:29;49.80;;;18.50;;
65275;SDS011;51875;49.994;14.052;2023-03-02T05:34:45;45.40;;;17.95;;
65275;SDS011;51875;49.994;14.052;2023-03-02T05:36:01;50.72;;;19.45;;
65275;SDS011;51875;49.994;14.052;2023-03-02T05:37:17;47.08;;;17.98;;
65275;SDS011;51875;49.994;14.052;2023-03-02T05:38:32;42.70;;;17.65;;
65275;SDS011;51875;49.994;14.052;2023-03-02T05:39:48;47.45;;;17.88;;
65275;SDS011;51875;49.994;14.052;2023-03-02T05:41:04;48.25;;;17.73;;
65275;SDS011;51875;49.994;14.052;2023-03-02T05:42:20;48.28;;;18.90;;
65275;SDS011;51875;49.994;14.052;2023-03-02T05:43:35;50.83;;;18.92;;
65275;SDS011;51875;49.994;14.052;2023-03-02T05:44:51;48.22;;;18.65;;
65275;SDS011;51875;49.994;14.052;2023-03-02T05:46:06;46.85;;;18.13;;
65275;SDS011;51875;49.994;14.052;2023-03-02T05:47:22;46.80;;;18.23;;
65275;SDS011;51875;49.994;14.052;2023-03-02T05:48:38;46.50;;;18.35;;
65275;SDS011;51875;49.994;14.052;2023-03-02T05:49:57;40.97;;;16.98;;
65275;SDS011;51875;49.994;14.052;2023-03-02T05:51:13;42.15;;;17.63;;
65275;SDS011;51875;49.994;14.052;2023-03-02T05:52:30;41.30;;;17.48;;
65275;SDS011;51875;49.994;14.052;2023-03-02T05:53:45;46.03;;;17.30;;
65275;SDS011;51875;49.994;14.052;2023-03-02T05:55:01;43.83;;;18.05;;
65275;SDS011;51875;49.994;14.052;2023-03-02T05:56:17;46.47;;;18.25;;
65275;SDS011;51875;49.994;14.052;2023-03-02T05:57:34;46.85;;;19.05;;
65275;SDS011;51875;49.994;14.052;2023-03-02T05:58:50;46.00;;;18.33;;
65275;SDS011;51875;49.994;14.052;2023-03-02T06:00:06;46.17;;;18.60;;
65275;SDS011;51875;49.994;14.052;2023-03-02T06:01:24;48.65;;;18.98;;
65275;SDS011;51875;49.994;14.052;2023-03-02T06:02:39;48.10;;;19.15;;
65275;SDS011;51875;49.994;14.052;2023-03-02T06:03:55;51.90;;;19.77;;
65275;SDS011;51875;49.994;14.052;2023-03-02T06:05:12;46.47;;;19.38;;
65275;SDS011;51875;49.994;14.052;2023-03-02T06:06:30;54.38;;;19.38;;
65275;SDS011;51875;49.994;14.052;2023-03-02T06:07:46;41.38;;;18.02;;
65275;SDS011;51875;49.994;14.052;2023-03-02T06:09:01;48.78;;;18.90;;
65275;SDS011;51875;49.994;14.052;2023-03-02T06:10:17;44.67;;;18.73;;
65275;SDS011;51875;49.994;14.052;2023-03-02T06:11:33;43.65;;;18.58;;
65275;SDS011;51875;49.994;14.052;2023-03-02T06:12:49;45.50;;;17.13;;
65275;SDS011;51875;49.994;14.052;2023-03-02T06:14:05;51.92;;;18.55;;
65275;SDS011;51875;49.994;14.052;2023-03-02T06:15:20;50.35;;;19.73;;
65275;SDS011;51875;49.994;14.052;2023-03-02T06:16:36;40.50;;;17.92;;
65275;SDS011;51875;49.994;14.052;2023-03-02T06:17:52;46.22;;;19.65;;
65275;SDS011;51875;49.994;14.052;2023-03-02T06:19:08;43.63;;;17.95;;
65275;SDS011;51875;49.994;14.052;2023-03-02T06:20:23;48.72;;;18.98;;
65275;SDS011;51875;49.994;14.052;2023-03-02T06:21:39;51.33;;;19.88;;
65275;SDS011;51875;49.994;14.052;2023-03-02T06:22:55;48.53;;;18.70;;
65275;SDS011;51875;49.994;14.052;2023-03-02T06:24:11;51.58;;;19.80;;
65275;SDS011;51875;49.994;14.052;2023-03-02T06:25:26;46.05;;;18.20;;
65275;SDS011;51875;49.994;14.052;2023-03-02T06:26:42;46.80;;;18.50;;
65275;SDS011;51875;49.994;14.052;2023-03-02T06:27:58;47.40;;;19.05;;
65275;SDS011;51875;49.994;14.052;2023-03-02T06:29:14;57.22;;;19.75;;
65275;SDS011;51875;49.994;14.052;2023-03-02T06:30:29;50.38;;;19.45;;
65275;SDS011;51875;49.994;14.052;2023-03-02T06:31:45;48.10;;;17.90;;
65275;SDS011;51875;49.994;14.052;2023-03-02T06:33:00;56.03;;;20.65;;
65275;SDS011;51875;49.994;14.052;2023-03-02T06:34:16;55.63;;;20.67;;
65275;SDS011;51875;49.994;14.052;2023-03-02T06:35:32;51.80;;;20.80;;
65275;SDS011;51875;49.994;14.052;2023-03-02T06:36:48;48.13;;;19.88;;
65275;SDS011;51875;49.994;14.052;2023-03-02T06:38:04;48.47;;;20.25;;
65275;SDS011;51875;49.994;14.052;2023-03-02T06:39:20;49.00;;;18.90;;
65275;SDS011;51875;49.994;14.052;2023-03-02T06:40:36;49.60;;;20.85;;
65275;SDS011;51875;49.994;14.052;2023-03-02T06:41:52;49.38;;;20.60;;
65275;SDS011;51875;49.994;14.052;2023-03-02T06:43:08;53.08;;;20.77;;
65275;SDS011;51875;49.994;14.052;2023-03-02T06:44:23;53.97;;;20.92;;
65275;SDS011;51875;49.994;14.052;2023-03-02T06:45:39;56.42;;;21.42;;
65275;SDS011;51875;49.994;14.052;2023-03-02T06:46:55;51.88;;;21.90;;
65275;SDS011;51875;49.994;14.052;2023-03-02T06:48:10;51.67;;;21.05;;
65275;SDS011;51875;49.994;14.052;2023-03-02T06:49:26;55.20;;;22.48;;
65275;SDS011;51875;49.994;14.052;2023-03-02T06:50:42;55.22;;;22.27;;
65275;SDS011;51875;49.994;14.052;2023-03-02T06:51:57;57.05;;;20.50;;
65275;SDS011;51875;49.994;14.052;2023-03-02T06:53:13;53.28;;;22.00;;
65275;SDS011;51875;49.994;14.052;2023-03-02T06:54:29;53.58;;;22.45;;
65275;SDS011;51875;49.994;14.052;2023-03-02T06:55:48;54.03;;;22.38;;
65275;SDS011;51875;49.994;14.052;2023-03-02T06:57:04;53.03;;;21.77;;
65275;SDS011;51875;49.994;14.052;2023-03-02T06:58:20;53.75;;;22.55;;
65275;SDS011;51875;49.994;14.052;2023-03-02T06:59:35;63.55;;;23.20;;
65275;SDS011;51875;49.994;14.052;2023-03-02T07:00:51;58.70;;;23.42;;
65275;SDS011;51875;49.994;14.052;2023-03-02T07:02:08;56.30;;;23.05;;
65275;SDS011;51875;49.994;14.052;2023-03-02T07:03:25;57.40;;;23.23;;
65275;SDS011;51875;49.994;14.052;2023-03-02T07:04:41;62.95;;;24.70;;
65275;SDS011;51875;49.994;14.052;2023-03-02T07:05:56;63.50;;;25.00;;
65275;SDS011;51875;49.994;14.052;2023-03-02T07:07:12;69.88;;;27.67;;
65275;SDS011;51875;49.994;14.052;2023-03-02T07:08:27;77.93;;;30.48;;
65275;SDS011;51875;49.994;14.052;2023-03-02T07:09:43;75.93;;;31.05;;
65275;SDS011;51875;49.994;14.052;2023-03-02T07:11:02;84.32;;;32.90;;
65275;SDS011;51875;49.994;14.052;2023-03-02T07:12:19;77.55;;;30.45;;
65275;SDS011;51875;49.994;14.052;2023-03-02T07:13:35;65.05;;;25.58;;
65275;SDS011;51875;49.994;14.052;2023-03-02T07:14:52;66.75;;;26.73;;
65275;SDS011;51875;49.994;14.052;2023-03-02T07:16:11;63.55;;;26.00;;
65275;SDS011;51875;49.994;14.052;2023-03-02T07:17:29;64.40;;;24.63;;
65275;SDS011;51875;49.994;14.052;2023-03-02T07:18:44;69.95;;;26.73;;
65275;SDS011;51875;49.994;14.052;2023-03-02T07:20:00;69.57;;;27.35;;
65275;SDS011;51875;49.994;14.052;2023-03-02T07:21:16;66.20;;;27.08;;
65275;SDS011;51875;49.994;14.052;2023-03-02T07:22:31;67.75;;;26.45;;
65275;SDS011;51875;49.994;14.052;2023-03-02T07:23:47;61.25;;;25.38;;
65275;SDS011;51875;49.994;14.052;2023-03-02T07:25:03;61.08;;;25.98;;
65275;SDS011;51875;49.994;14.052;2023-03-02T07:26:19;60.80;;;25.27;;
65275;SDS011;51875;49.994;14.052;2023-03-02T07:27:34;59.30;;;24.33;;
65275;SDS011;51875;49.994;14.052;2023-03-02T07:28:50;57.30;;;23.48;;
65275;SDS011;51875;49.994;14.052;2023-03-02T07:30:06;54.28;;;22.83;;
65275;SDS011;51875;49.994;14.052;2023-03-02T07:31:23;58.67;;;24.02;;